METAR Data
IDs: Format: Raw Decoded Include TAF

Data at: 2205 UTC 18 Apr 2021

KRSW 182153Z 23012KT 10SM CLR 29/19 A2987 RMK AO2 SLP112 T02890194
KRSW 182053Z 23012KT 10SM CLR 30/19 A2987 RMK AO2 SLP113 T03000194 58014
KRSW 181953Z 24014G20KT 10SM CLR 31/20 A2989 RMK AO2 SLP119 T03110200
KRSW 181853Z COR 23012KT 10SM CLR 31/18 A2990 RMK AO2 SLP124 T03060183
KRSW 181753Z 23014KT 10SM CLR 31/19 A2991 RMK AO2 SLP127 T03110189 10317 20222 58015
KRSW 181653Z 22014KT 10SM FEW033 30/20 A2993 RMK AO2 SLP133 T03000200
KRSW 181553Z 23014KT 10SM FEW034 29/21 A2995 RMK AO2 SLP138 T02940206
KRSW 181453Z 17006KT 10SM SCT025 SCT030 28/21 A2996 RMK AO2 SLP141 T02830211 50003
KRSW 181353Z 18009KT 10SM FEW039 27/21 A2996 RMK AO2 SLP142 T02670211
KRSW 181253Z 18007KT 10SM CLR 24/22 A2996 RMK AO2 SLP142 T02440217
KRSW 181153Z 16006KT 8SM CLR 22/21 A2995 RMK AO2 SLP139 T02220211 10228 20206 53010
KRSW 181053Z 17005KT 9SM SCT047 22/21 A2994 RMK AO2 SLP135 T02220206
KRSW 180953Z 16003KT 10SM SCT047 BKN060 21/19 A2992 RMK AO2 SLP131 T02110194
KRSW 180853Z AUTO 00000KT 9SM CLR 21/20 A2992 RMK AO2 SLP129 T02110200 57002
KRSW 180753Z AUTO 15003KT 10SM CLR 22/20 A2992 RMK AO2 SLP129 T02170200
KRSW 180653Z AUTO 00000KT 9SM BKN050 22/20 A2992 RMK AO2 SLP130 T02170200
KRSW 180553Z AUTO 00000KT 10SM CLR 22/20 A2993 RMK AO2 SLP131 T02170200 10250 20217 52004
KRSW 180453Z AUTO 00000KT 10SM CLR 23/21 A2992 RMK AO2 SLP130 T02280206 403000211
KRSW 180353Z AUTO 22003KT 10SM CLR 23/21 A2992 RMK AO2 SLP129 T02280211
KRSW 180253Z 22004KT 10SM CLR 23/21 A2992 RMK AO2 SLP127 T02280211 51012
KRSW 180153Z 23004KT 10SM CLR 23/21 A2990 RMK AO2 SLP124 T02330211
KRSW 180053Z 26005KT 10SM CLR 25/21 A2990 RMK AO2 SLP122 T02500211
KRSW 172353Z 25009KT 10SM CLR 24/21 A2988 RMK AO2 SLP115 T02440206 10300 20244 51006
KRSW 172253Z AUTO 24010KT 10SM CLR 26/20 A2987 RMK AO2 SLP113 T02610200
KRSW 172153Z 26009KT 10SM SCT027 28/19 A2987 RMK AO2 SLP111 T02780194
KRSW 172053Z 24015KT 10SM FEW030 28/19 A2986 RMK AO2 SLP109 T02830189 56017
KRSW 171953Z 22013KT 10SM SCT034 28/19 A2987 RMK AO2 SLP112 T02830194
KRSW 171853Z 23013G19KT 10SM SCT031 29/19 A2989 RMK AO2 SLP118 T02890194
KRSW 171753Z 25012KT 10SM SCT027 SCT035 28/19 A2991 RMK AO2 SLP127 T02830194 10289 20228 58004
KRSW 171653Z 23015KT 10SM FEW025 SCT032 29/21 A2992 RMK AO2 SLP129 T02890206
KRSW 171649Z 24013KT 10SM SCT027 BKN032 28/21 A2992 RMK AO2
KRSW 171626Z 26013KT 10SM BKN025 BKN037 28/21 A2992 RMK AO2 T02780206
KRSW 171553Z 25012KT 10SM FEW024 FEW030 FEW041 28/21 A2993 RMK AO2 SLP131 T02780211
KRSW 171533Z 24011KT 10SM FEW022 SCT029 SCT042 27/20 A2993 RMK AO2 T02720200
KRSW 171453Z 23012KT 10SM BKN022 BKN036 27/21 A2993 RMK AO2 SLP133 T02720211 51013
KRSW 171353Z 25010KT 10SM FEW019 SCT032 26/22 A2993 RMK AO2 SLP131 T02610217
KRSW 171329Z 25009KT 10SM BKN014 BKN021 OVC039 25/22 A2992 RMK AO2 T02500217
KRSW 171253Z 21007KT 8SM FEW016 BKN023 BKN030 24/22 A2991 RMK AO2 SLP124 T02440217
KRSW 171204Z 00000KT 4SM BR BKN029 OVC036 23/22 A2989 RMK AO2 T02280217
KRSW 171153Z 6SM BR FEW027 OVC036 23/22 A2989 RMK AO2 SLP119 T02330217 10233 20211 53007
KRSW 171128Z 00000KT 5SM BR SCT028 BKN036 22/21 A2988 RMK AO2 T02220211
KRSW 171053Z 00000KT 4SM BR BKN029 22/20 A2987 RMK AO2 SLP113 T02170200